createdAt,value
2023-07-24T00:02:10.448Z,18.30
2023-07-24T00:06:14.046Z,18.30
2023-07-24T00:10:17.418Z,18.20
2023-07-24T00:14:22.858Z,18.20
2023-07-24T00:18:27.678Z,18.10
2023-07-24T00:22:30.970Z,18.10
2023-07-24T00:26:34.467Z,18.00
2023-07-24T00:30:37.755Z,17.90
2023-07-24T00:34:42.455Z,17.80
2023-07-24T00:38:45.874Z,17.70
2023-07-24T00:42:50.471Z,17.70
2023-07-24T00:46:54.082Z,17.70
2023-07-24T00:50:59.396Z,17.70
2023-07-24T00:55:02.980Z,17.70
2023-07-24T00:59:06.696Z,17.60
2023-07-24T01:03:10.266Z,17.50
2023-07-24T01:07:15.257Z,17.50
2023-07-24T01:11:21.361Z,17.40
2023-07-24T01:15:34.530Z,17.40
2023-07-24T01:19:40.391Z,17.30
2023-07-24T01:24:03.270Z,17.30
2023-07-24T01:28:10.836Z,17.20
2023-07-24T01:32:14.381Z,17.10
2023-07-24T01:36:18.430Z,17.10
2023-07-24T01:40:22.992Z,17.00
2023-07-24T01:44:27.910Z,17.00
2023-07-24T01:48:32.323Z,17.00
2023-07-24T01:52:35.714Z,17.10
2023-07-24T01:56:40.817Z,17.20
2023-07-24T02:00:45.928Z,17.20
2023-07-24T02:04:49.523Z,17.20
2023-07-24T02:08:53.146Z,17.30
2023-07-24T02:12:56.491Z,17.20
2023-07-24T02:17:01.332Z,17.20
2023-07-24T02:21:04.863Z,17.20
2023-07-24T02:25:09.010Z,17.20
2023-07-24T02:29:12.468Z,17.20
2023-07-24T02:33:17.488Z,17.20
2023-07-24T02:37:21.600Z,17.10
2023-07-24T02:41:24.884Z,17.10
2023-07-24T02:45:28.215Z,17.10
2023-07-24T02:49:33.229Z,17.20
2023-07-24T02:53:36.542Z,17.10
2023-07-24T02:57:39.809Z,17.10
2023-07-24T03:01:43.200Z,17.10
2023-07-24T03:05:47.932Z,17.00
2023-07-24T03:09:53.674Z,17.00
2023-07-24T03:13:57.124Z,17.00
2023-07-24T03:18:00.665Z,16.90
2023-07-24T03:22:05.852Z,17.00
2023-07-24T03:26:09.209Z,17.00
2023-07-24T03:30:13.424Z,16.90
2023-07-24T03:34:16.680Z,16.90
2023-07-24T03:38:21.477Z,16.80
2023-07-24T03:42:30.099Z,16.80
2023-07-24T03:46:34.773Z,16.80
2023-07-24T03:50:38.656Z,16.80
2023-07-24T03:54:43.320Z,16.70
2023-07-24T03:58:48.077Z,16.60
2023-07-24T04:02:51.558Z,16.60
2023-07-24T04:06:55.149Z,16.60
2023-07-24T04:10:59.784Z,16.50
2023-07-24T04:15:03.147Z,16.50
2023-07-24T04:19:06.713Z,16.40
2023-07-24T04:23:10.298Z,16.50
2023-07-24T04:27:15.470Z,16.50
2023-07-24T04:31:19.065Z,16.50
2023-07-24T04:35:22.419Z,16.60
2023-07-24T04:39:25.734Z,16.60
2023-07-24T04:43:30.598Z,16.70
2023-07-24T04:47:34.014Z,16.80
2023-07-24T04:51:37.622Z,16.90
2023-07-24T04:55:40.946Z,17.00
2023-07-24T04:59:45.896Z,17.10
2023-07-24T05:03:49.680Z,17.10
2023-07-24T05:07:53.022Z,17.30
2023-07-24T05:11:56.423Z,17.30
2023-07-24T05:16:02.183Z,17.30
2023-07-24T05:20:06.156Z,17.40
2023-07-24T05:24:12.928Z,17.50
2023-07-24T05:28:16.457Z,17.60
2023-07-24T05:32:21.327Z,17.70
2023-07-24T05:36:24.629Z,17.80
2023-07-24T05:40:27.947Z,18.00
2023-07-24T05:44:31.370Z,18.10
2023-07-24T05:48:36.042Z,18.20
2023-07-24T05:52:40.476Z,18.30
2023-07-24T05:56:43.754Z,18.50
2023-07-24T06:00:47.017Z,18.60
2023-07-24T06:04:51.856Z,18.80
2023-07-24T06:08:55.240Z,19.00
2023-07-24T06:12:58.708Z,19.10
2023-07-24T06:17:02.178Z,19.30
2023-07-24T06:21:06.926Z,19.40
2023-07-24T06:25:10.768Z,19.50
2023-07-24T06:29:15.942Z,19.70
2023-07-24T06:33:19.427Z,20.00
2023-07-24T06:37:24.434Z,20.30
2023-07-24T06:41:30.805Z,20.60
2023-07-24T06:45:36.559Z,21.00
2023-07-24T06:49:39.883Z,21.20
2023-07-24T06:53:44.633Z,21.40
2023-07-24T06:57:48.036Z,21.50
2023-07-24T07:01:51.577Z,21.60
2023-07-24T07:06:04.913Z,21.70
2023-07-24T07:10:11.344Z,21.90
2023-07-24T07:14:14.726Z,21.90
2023-07-24T07:18:18.597Z,22.20
2023-07-24T07:22:21.931Z,22.40
2023-07-24T07:26:26.704Z,22.70
2023-07-24T07:30:30.008Z,22.90
2023-07-24T07:34:33.426Z,23.00
2023-07-24T07:38:40.866Z,23.20
2023-07-24T07:42:46.511Z,23.40
2023-07-24T07:46:49.834Z,23.50
2023-07-24T07:50:53.818Z,23.70
2023-07-24T07:55:00.033Z,23.80
2023-07-24T07:59:05.065Z,23.80
2023-07-24T08:03:08.464Z,23.90
2023-07-24T08:07:12.040Z,24.10
2023-07-24T08:11:15.359Z,24.10
2023-07-24T08:15:20.081Z,24.20
2023-07-24T08:19:24.310Z,24.90
2023-07-24T08:23:27.735Z,24.90
2023-07-24T08:27:31.192Z,24.90
2023-07-24T08:31:35.973Z,25.20
2023-07-24T08:35:40.565Z,25.90
2023-07-24T08:39:43.834Z,26.50
2023-07-24T08:43:47.289Z,26.70
2023-07-24T08:47:53.065Z,27.90
2023-07-24T08:51:59.254Z,29.50
2023-07-24T08:56:05.275Z,29.70
2023-07-24T09:00:09.707Z,31.00
2023-07-24T09:04:15.027Z,32.30
2023-07-24T09:08:18.513Z,33.60
2023-07-24T09:12:23.762Z,35.00
2023-07-24T09:16:29.292Z,34.80
2023-07-24T09:20:41.973Z,34.90
2023-07-24T09:24:53.391Z,34.60
2023-07-24T09:29:00.172Z,35.10
2023-07-24T09:33:03.721Z,34.60
2023-07-24T09:37:08.720Z,34.10
2023-07-24T09:41:13.408Z,32.60
2023-07-24T09:45:17.095Z,33.70
2023-07-24T09:49:20.561Z,34.90
2023-07-24T09:53:33.954Z,35.10
2023-07-24T09:57:38.194Z,34.70
2023-07-24T10:01:42.502Z,33.70
2023-07-24T10:05:47.053Z,33.70
2023-07-24T10:09:52.576Z,34.30
2023-07-24T10:13:56.411Z,36.40
2023-07-24T10:18:05.459Z,37.10
2023-07-24T10:22:09.184Z,37.70
2023-07-24T10:26:14.265Z,37.50
2023-07-24T10:30:33.577Z,38.50
2023-07-24T10:34:41.752Z,37.20
2023-07-24T10:38:45.927Z,36.60
2023-07-24T10:43:01.649Z,36.80
2023-07-24T10:47:05.594Z,37.60
2023-07-24T10:51:11.258Z,37.20
2023-07-24T10:55:14.962Z,36.30
2023-07-24T10:59:19.645Z,36.20
2023-07-24T11:03:23.360Z,36.90
2023-07-24T11:07:26.716Z,35.60
2023-07-24T11:11:34.651Z,33.80
2023-07-24T11:15:39.879Z,32.70
2023-07-24T11:19:43.879Z,31.30
2023-07-24T11:23:52.109Z,30.20
2023-07-24T11:27:56.076Z,29.60
2023-07-24T11:32:00.890Z,29.20
2023-07-24T11:36:04.904Z,30.10
2023-07-24T11:40:12.086Z,31.90
2023-07-24T11:44:17.901Z,34.00
2023-07-24T11:48:24.525Z,35.50
2023-07-24T11:52:27.974Z,35.80
2023-07-24T11:56:33.498Z,35.60
2023-07-24T12:00:38.473Z,35.20
2023-07-24T12:04:43.441Z,36.30
2023-07-24T12:08:47.968Z,35.40
2023-07-24T12:12:51.385Z,35.30
2023-07-24T12:17:03.507Z,34.80
2023-07-24T12:21:08.254Z,35.20
2023-07-24T12:25:11.734Z,33.40
2023-07-24T12:29:16.438Z,33.10
2023-07-24T12:33:19.743Z,32.40
2023-07-24T12:37:25.738Z,32.10
2023-07-24T12:41:29.669Z,31.60
2023-07-24T12:45:33.231Z,31.50
2023-07-24T12:49:36.812Z,31.70
2023-07-24T12:53:48.715Z,31.90
2023-07-24T12:57:58.616Z,31.90
2023-07-24T13:02:01.992Z,31.60
2023-07-24T13:06:05.656Z,31.70
2023-07-24T13:10:11.795Z,31.50
2023-07-24T13:14:15.097Z,31.00
2023-07-24T13:18:28.567Z,30.70
2023-07-24T13:22:32.624Z,30.70
2023-07-24T13:26:41.679Z,31.40
2023-07-24T13:30:46.208Z,31.20
2023-07-24T13:34:51.010Z,31.70
2023-07-24T13:38:55.427Z,31.90
2023-07-24T13:43:00.220Z,32.40
2023-07-24T13:47:03.743Z,32.60
2023-07-24T13:51:07.265Z,32.60
2023-07-24T13:55:10.834Z,31.30
2023-07-24T13:59:17.744Z,31.60
2023-07-24T14:03:21.531Z,31.50
2023-07-24T14:07:25.391Z,31.20
2023-07-24T14:11:30.668Z,30.50
2023-07-24T14:15:35.741Z,30.00
2023-07-24T14:19:39.742Z,29.50
2023-07-24T14:23:43.744Z,29.40
2023-07-24T14:27:47.834Z,29.20
2023-07-24T14:31:53.238Z,29.00
2023-07-24T14:35:57.625Z,28.60
2023-07-24T14:40:01.733Z,28.00
2023-07-24T14:44:05.953Z,27.60
2023-07-24T14:48:14.275Z,27.20
2023-07-24T14:52:19.294Z,27.20
2023-07-24T14:56:23.264Z,27.40
2023-07-24T15:00:28.156Z,27.70
2023-07-24T15:04:33.303Z,27.70
2023-07-24T15:08:36.852Z,28.00
2023-07-24T15:18:03.908Z,28.30
2023-07-24T15:22:10.518Z,28.10
2023-07-24T15:26:15.510Z,28.10
2023-07-24T15:30:19.995Z,27.80
2023-07-24T15:34:24.496Z,27.60
2023-07-24T15:38:29.670Z,27.30
2023-07-24T15:42:33.494Z,27.00
2023-07-24T15:46:37.077Z,26.90
2023-07-24T15:50:40.940Z,27.10
2023-07-24T15:54:45.671Z,27.30
2023-07-24T15:58:49.129Z,27.50
2023-07-24T16:02:53.915Z,27.50
2023-07-24T16:06:57.449Z,27.50
2023-07-24T16:11:03.310Z,27.50
2023-07-24T16:15:07.633Z,27.60
2023-07-24T16:19:15.196Z,27.90
2023-07-24T16:23:19.045Z,28.10
2023-07-24T16:27:24.094Z,28.20
2023-07-24T16:31:35.351Z,28.20
2023-07-24T16:35:40.088Z,27.90
2023-07-24T16:39:43.921Z,27.60
2023-07-24T16:43:49.899Z,27.50
2023-07-24T16:47:53.344Z,27.80
2023-07-24T16:52:01.781Z,28.00
2023-07-24T16:56:06.992Z,28.30
2023-07-24T17:00:15.414Z,28.40
2023-07-24T17:04:55.493Z,28.30
2023-07-24T17:09:00.702Z,27.90
2023-07-24T17:13:26.237Z,27.80
2023-07-24T17:17:32.255Z,27.80
2023-07-24T17:22:35.263Z,27.60
2023-07-24T17:26:49.268Z,27.30
2023-07-24T17:31:15.788Z,27.00
2023-07-24T17:35:21.298Z,26.60
2023-07-24T17:39:25.163Z,26.40
2023-07-24T17:43:30.449Z,26.20
2023-07-24T17:47:35.631Z,26.40
2023-07-24T17:51:41.038Z,26.20
2023-07-24T17:55:45.445Z,26.10
2023-07-24T17:59:50.143Z,25.90
2023-07-24T18:03:54.347Z,25.70
2023-07-24T18:08:02.266Z,25.50
2023-07-24T18:12:08.557Z,25.20
2023-07-24T18:16:12.819Z,24.80
2023-07-24T18:20:18.057Z,24.60
2023-07-24T18:24:25.227Z,24.30
2023-07-24T18:28:37.400Z,23.90
2023-07-24T18:32:42.795Z,23.60
2023-07-24T18:36:46.973Z,23.30
2023-07-24T18:40:51.924Z,22.90
2023-07-24T18:44:56.145Z,22.60
2023-07-24T18:49:02.871Z,22.30
2023-07-24T18:53:09.760Z,22.10
2023-07-24T18:57:15.367Z,22.00
2023-07-24T19:01:18.774Z,21.80
2023-07-24T19:05:29.612Z,21.70
2023-07-24T19:09:34.536Z,21.60
2023-07-24T19:13:42.680Z,21.50
2023-07-24T19:17:47.568Z,21.50
2023-07-24T19:21:59.852Z,21.40
2023-07-24T19:26:03.838Z,21.30
2023-07-24T19:30:13.924Z,21.30
2023-07-24T19:34:24.059Z,21.20
2023-07-24T19:38:28.562Z,21.20
2023-07-24T19:42:32.385Z,21.20
2023-07-24T19:46:38.719Z,21.10
2023-07-24T19:50:49.685Z,21.10
2023-07-24T19:54:53.889Z,20.90
2023-07-24T19:58:58.555Z,20.70
2023-07-24T20:03:04.172Z,20.60
2023-07-24T20:07:10.536Z,20.60
2023-07-24T20:11:16.903Z,20.60
2023-07-24T20:15:23.486Z,20.50
2023-07-24T20:19:30.045Z,20.50
2023-07-24T20:23:37.953Z,20.50
2023-07-24T20:27:43.753Z,20.50
2023-07-24T20:31:47.732Z,20.50
2023-07-24T20:35:56.581Z,20.40
2023-07-24T20:40:03.039Z,20.40
2023-07-24T20:44:08.356Z,20.40
2023-07-24T20:48:13.121Z,20.40
2023-07-24T20:52:21.919Z,20.30
2023-07-24T20:56:26.764Z,20.30
2023-07-24T21:00:32.074Z,20.10
2023-07-24T21:04:37.128Z,20.20
2023-07-24T21:08:41.803Z,20.20
2023-07-24T21:12:46.046Z,19.90
2023-07-24T21:16:50.946Z,19.60
2023-07-24T21:20:54.393Z,19.30
2023-07-24T21:25:00.536Z,19.20
2023-07-24T21:29:05.245Z,19.10
2023-07-24T21:33:08.643Z,19.00
2023-07-24T21:37:11.996Z,19.00
2023-07-24T21:41:16.796Z,18.90
2023-07-24T21:45:20.291Z,18.90
2023-07-24T21:49:23.790Z,18.80
2023-07-24T21:53:27.059Z,18.70
2023-07-24T21:57:31.906Z,18.50
2023-07-24T22:01:35.685Z,18.40
2023-07-24T22:05:39.565Z,18.40
2023-07-24T22:09:43.091Z,18.40
2023-07-24T22:13:48.553Z,18.40
2023-07-24T22:17:51.902Z,18.40
2023-07-24T22:21:55.543Z,18.40
2023-07-24T22:25:59.102Z,18.50
2023-07-24T22:30:05.198Z,18.50
2023-07-24T22:34:08.551Z,18.40
2023-07-24T22:38:11.887Z,18.40
2023-07-24T22:42:17.452Z,18.40
2023-07-24T22:46:22.193Z,18.40
2023-07-24T22:50:26.164Z,18.40
2023-07-24T22:54:29.542Z,18.30
2023-07-24T22:58:51.083Z,18.30
2023-07-24T23:02:55.856Z,18.20
2023-07-24T23:07:00.961Z,18.20
2023-07-24T23:11:04.331Z,18.20
2023-07-24T23:15:09.138Z,18.20
2023-07-24T23:19:13.800Z,18.20
2023-07-24T23:23:17.514Z,18.20
2023-07-24T23:27:20.893Z,18.20
2023-07-24T23:31:24.370Z,18.20
2023-07-24T23:35:33.163Z,18.20
2023-07-24T23:39:36.688Z,18.20
2023-07-24T23:43:40.122Z,18.00
2023-07-24T23:47:43.711Z,18.00
2023-07-24T23:51:48.577Z,18.00
2023-07-24T23:55:51.932Z,17.80
2023-07-24T23:59:55.240Z,17.80
